createdAt,value
2023-05-21T00:00:56.990Z,17.79
2023-05-21T00:04:00.003Z,17.84
2023-05-21T00:07:02.521Z,17.87
2023-05-21T00:10:05.525Z,17.71
2023-05-21T00:13:09.176Z,17.72
2023-05-21T00:16:11.735Z,17.58
2023-05-21T00:19:14.289Z,17.63
2023-05-21T00:22:16.989Z,17.55
2023-05-21T00:25:19.416Z,17.62
2023-05-21T00:28:21.939Z,17.66
2023-05-21T00:31:24.481Z,17.51
2023-05-21T00:34:27.398Z,17.51
2023-05-21T00:37:33.020Z,17.51
2023-05-21T00:40:41.328Z,17.56
2023-05-21T00:43:44.709Z,17.43
2023-05-21T00:46:49.020Z,17.55
2023-05-21T00:49:53.409Z,17.48
2023-05-21T00:52:56.093Z,17.31
2023-05-21T00:55:58.526Z,17.36
2023-05-21T00:59:05.594Z,17.26
2023-05-21T01:02:09.626Z,17.31
2023-05-21T01:05:12.181Z,17.23
2023-05-21T01:08:15.104Z,17.24
2023-05-21T01:11:17.888Z,17.30
2023-05-21T01:14:20.262Z,17.33
2023-05-21T01:17:24.514Z,17.27
2023-05-21T01:20:27.490Z,17.26
2023-05-21T01:23:30.648Z,17.12
2023-05-21T01:26:33.926Z,17.15
2023-05-21T01:29:36.367Z,17.22
2023-05-21T01:32:59.296Z,17.20
2023-05-21T01:36:16.095Z,17.25
2023-05-21T01:39:24.126Z,17.25
2023-05-21T01:42:26.530Z,17.17
2023-05-21T01:45:29.622Z,17.04
2023-05-21T01:48:32.046Z,16.96
2023-05-21T01:51:34.664Z,16.96
2023-05-21T01:54:37.033Z,16.99
2023-05-21T01:57:39.402Z,16.91
2023-05-21T02:00:41.991Z,16.76
2023-05-21T02:03:44.875Z,16.75
2023-05-21T02:06:47.381Z,16.82
2023-05-21T02:09:49.739Z,16.86
2023-05-21T02:12:53.120Z,16.96
2023-05-21T02:15:56.360Z,16.93
2023-05-21T02:19:00.772Z,16.78
2023-05-21T02:22:03.242Z,16.78
2023-05-21T02:25:07.536Z,16.77
2023-05-21T02:28:09.900Z,16.61
2023-05-21T02:31:12.772Z,16.53
2023-05-21T02:34:15.198Z,16.30
2023-05-21T02:37:17.794Z,16.37
2023-05-21T02:40:20.399Z,16.44
2023-05-21T02:43:22.876Z,16.47
2023-05-21T02:46:25.313Z,16.41
2023-05-21T02:49:28.546Z,16.37
2023-05-21T02:52:31.078Z,16.44
2023-05-21T02:55:33.705Z,16.51
2023-05-21T02:58:37.212Z,16.35
2023-05-21T03:01:41.410Z,16.46
2023-05-21T03:04:48.581Z,16.46
2023-05-21T03:07:51.475Z,16.40
2023-05-21T03:10:53.971Z,16.34
2023-05-21T03:13:56.386Z,16.26
2023-05-21T03:16:58.814Z,16.24
2023-05-21T03:20:01.248Z,16.32
2023-05-21T03:23:04.475Z,16.45
2023-05-21T03:26:07.119Z,16.39
2023-05-21T03:29:09.586Z,16.36
2023-05-21T03:32:13.037Z,16.38
2023-05-21T03:35:15.873Z,16.42
2023-05-21T03:38:18.546Z,16.53
2023-05-21T03:41:21.324Z,16.45
2023-05-21T03:44:28.168Z,16.52
2023-05-21T03:47:43.144Z,16.42
2023-05-21T03:50:46.344Z,16.40
2023-05-21T03:53:50.931Z,16.42
2023-05-21T03:56:53.641Z,16.53
2023-05-21T03:59:58.969Z,16.60
2023-05-21T04:03:01.743Z,16.64
2023-05-21T04:06:04.516Z,16.73
2023-05-21T04:09:07.153Z,16.76
2023-05-21T04:12:09.534Z,16.74
2023-05-21T04:15:12.617Z,16.67
2023-05-21T04:18:17.834Z,16.75
2023-05-21T04:21:20.740Z,16.80
2023-05-21T04:24:23.541Z,16.89
2023-05-21T04:27:37.142Z,16.87
2023-05-21T04:30:39.658Z,16.87
2023-05-21T04:33:42.325Z,16.95
2023-05-21T04:36:45.609Z,16.97
2023-05-21T04:39:48.950Z,17.07
2023-05-21T04:42:51.486Z,17.17
2023-05-21T04:45:56.781Z,17.23
2023-05-21T04:49:03.091Z,17.37
2023-05-21T04:52:05.570Z,17.51
2023-05-21T04:55:09.026Z,17.52
2023-05-21T04:58:11.521Z,17.53
2023-05-21T05:01:17.595Z,17.63
2023-05-21T05:04:21.533Z,17.50
2023-05-21T05:07:24.339Z,17.59
2023-05-21T05:10:27.736Z,17.56
2023-05-21T05:13:31.132Z,17.58
2023-05-21T05:16:34.327Z,17.55
2023-05-21T05:19:36.993Z,17.64
2023-05-21T05:22:39.449Z,17.73
2023-05-21T05:25:41.881Z,17.74
2023-05-21T05:28:45.983Z,17.86
2023-05-21T05:31:48.462Z,18.03
2023-05-21T05:34:51.470Z,18.13
2023-05-21T05:37:53.893Z,18.19
2023-05-21T05:40:56.349Z,18.18
2023-05-21T05:43:58.718Z,18.34
2023-05-21T05:47:09.247Z,18.55
2023-05-21T05:50:11.877Z,18.49
2023-05-21T05:53:14.780Z,18.51
2023-05-21T05:56:17.325Z,18.71
2023-05-21T05:59:20.433Z,18.76
2023-05-21T06:02:25.620Z,18.76
2023-05-21T06:05:29.316Z,18.81
2023-05-21T06:08:36.699Z,18.88
2023-05-21T06:11:40.661Z,19.04
2023-05-21T06:14:45.125Z,19.19
2023-05-21T06:17:48.050Z,19.20
2023-05-21T06:20:51.142Z,19.28
2023-05-21T06:23:55.603Z,19.33
2023-05-21T06:26:58.075Z,19.35
2023-05-21T06:30:00.820Z,19.18
2023-05-21T06:33:03.462Z,19.32
2023-05-21T06:36:06.536Z,19.29
2023-05-21T06:39:09.048Z,19.40
2023-05-21T06:42:11.617Z,19.41
2023-05-21T06:45:20.082Z,19.43
2023-05-21T06:48:22.518Z,19.37
2023-05-21T06:51:24.903Z,19.45
2023-05-21T06:54:27.362Z,19.51
2023-05-21T06:57:30.407Z,19.59
2023-05-21T07:00:33.297Z,19.89
2023-05-21T07:03:36.477Z,20.02
2023-05-21T07:06:39.134Z,20.28
2023-05-21T07:09:41.789Z,20.43
2023-05-21T07:12:44.592Z,20.63
2023-05-21T07:15:47.203Z,20.65
2023-05-21T07:18:50.003Z,20.78
2023-05-21T07:21:52.503Z,20.84
2023-05-21T07:24:54.956Z,20.84
2023-05-21T07:27:57.385Z,20.88
2023-05-21T07:31:00.020Z,20.94
2023-05-21T07:34:08.318Z,20.88
2023-05-21T07:37:10.825Z,20.83
2023-05-21T07:40:13.758Z,20.80
2023-05-21T07:43:18.185Z,21.16
2023-05-21T07:46:20.872Z,21.09
2023-05-21T07:49:26.899Z,21.10
2023-05-21T07:52:29.500Z,21.11
2023-05-21T07:55:32.259Z,21.49
2023-05-21T07:58:35.306Z,21.76
2023-05-21T08:01:38.298Z,21.88
2023-05-21T08:04:41.457Z,22.04
2023-05-21T08:07:46.409Z,22.11
2023-05-21T08:10:49.318Z,22.53
2023-05-21T08:13:52.411Z,22.75
2023-05-21T08:16:55.013Z,22.75
2023-05-21T08:19:57.801Z,22.88
2023-05-21T08:23:02.945Z,23.00
2023-05-21T08:26:12.989Z,23.16
2023-05-21T08:29:16.432Z,23.28
2023-05-21T08:32:18.889Z,23.36
2023-05-21T08:35:21.538Z,23.50
2023-05-21T08:38:34.804Z,23.66
2023-05-21T08:41:52.076Z,23.79
2023-05-21T08:44:54.512Z,23.86
2023-05-21T08:47:57.655Z,24.04
2023-05-21T08:51:02.059Z,24.24
2023-05-21T08:54:08.612Z,24.35
2023-05-21T08:57:11.139Z,24.49
2023-05-21T09:00:15.113Z,24.57
2023-05-21T09:03:18.097Z,24.73
2023-05-21T09:06:21.650Z,24.87
2023-05-21T09:09:28.255Z,25.02
2023-05-21T09:12:31.009Z,25.16
2023-05-21T09:15:34.995Z,25.26
2023-05-21T09:18:37.563Z,25.32
2023-05-21T09:21:46.863Z,25.38
2023-05-21T09:24:52.927Z,25.51
2023-05-21T09:27:56.291Z,25.72
2023-05-21T09:30:59.433Z,25.80
2023-05-21T09:34:02.719Z,25.94
2023-05-21T09:37:23.602Z,26.12
2023-05-21T09:40:30.820Z,26.15
2023-05-21T09:43:33.300Z,26.28
2023-05-21T09:46:40.644Z,26.46
2023-05-21T09:49:44.137Z,26.47
2023-05-21T09:52:46.787Z,26.72
2023-05-21T09:55:50.730Z,26.88
2023-05-21T09:58:57.190Z,26.90
2023-05-21T10:01:59.938Z,26.83
2023-05-21T10:05:02.569Z,27.10
2023-05-21T10:08:05.257Z,27.05
2023-05-21T10:11:07.671Z,27.25
2023-05-21T10:14:15.495Z,27.43
2023-05-21T10:17:18.081Z,27.58
2023-05-21T10:20:20.952Z,27.75
2023-05-21T10:23:23.867Z,27.86
2023-05-21T10:26:26.518Z,27.71
2023-05-21T10:29:28.914Z,27.60
2023-05-21T10:32:31.851Z,28.03
2023-05-21T10:35:34.696Z,28.21
2023-05-21T10:38:37.701Z,28.28
2023-05-21T10:41:50.830Z,28.40
2023-05-21T10:45:12.840Z,28.68
2023-05-21T10:48:20.918Z,28.42
2023-05-21T10:51:30.686Z,28.70
2023-05-21T10:55:02.111Z,28.95
2023-05-21T10:58:56.689Z,28.98
2023-05-21T11:01:59.136Z,29.20
2023-05-21T11:05:01.754Z,29.43
2023-05-21T11:08:04.415Z,29.67
2023-05-21T11:11:06.899Z,29.64
2023-05-21T11:14:40.596Z,29.77
2023-05-21T11:17:44.654Z,29.47
2023-05-21T11:20:51.396Z,29.49
2023-05-21T11:23:55.587Z,29.88
2023-05-21T11:26:58.701Z,30.25
2023-05-21T11:30:04.218Z,30.14
2023-05-21T11:33:12.352Z,30.44
2023-05-21T11:36:14.834Z,30.56
2023-05-21T11:39:22.095Z,30.59
2023-05-21T11:42:31.058Z,30.32
2023-05-21T11:45:33.523Z,30.73
2023-05-21T11:48:36.144Z,30.92
2023-05-21T11:51:39.809Z,30.71
2023-05-21T11:54:50.884Z,30.98
2023-05-21T11:57:53.969Z,30.88
2023-05-21T12:00:56.444Z,30.14
2023-05-21T12:03:58.862Z,30.69
2023-05-21T12:07:04.146Z,30.82
2023-05-21T12:10:07.254Z,31.09
2023-05-21T12:13:10.015Z,30.93
2023-05-21T12:16:12.648Z,31.48
2023-05-21T12:19:17.772Z,31.48
2023-05-21T12:22:20.365Z,31.57
2023-05-21T12:25:22.848Z,31.78
2023-05-21T12:28:25.247Z,31.80
2023-05-21T12:31:30.192Z,31.66
2023-05-21T12:34:48.803Z,31.52
2023-05-21T12:37:51.273Z,31.29
2023-05-21T12:40:53.675Z,31.47
2023-05-21T12:43:56.029Z,31.54
2023-05-21T12:46:59.370Z,31.43
2023-05-21T12:50:02.625Z,31.57
2023-05-21T12:53:05.029Z,31.33
2023-05-21T12:56:11.499Z,31.71
2023-05-21T12:59:17.111Z,31.85
2023-05-21T13:02:26.818Z,32.11
2023-05-21T13:05:29.808Z,31.98
2023-05-21T13:08:34.469Z,31.84
2023-05-21T13:11:36.890Z,31.65
2023-05-21T13:14:39.496Z,31.78
2023-05-21T13:17:41.944Z,31.92
2023-05-21T13:20:44.350Z,31.81
2023-05-21T13:23:46.692Z,31.78
2023-05-21T13:26:49.176Z,31.76
2023-05-21T13:29:51.573Z,31.82
2023-05-21T13:32:54.228Z,31.81
2023-05-21T13:35:56.750Z,31.78
2023-05-21T13:38:59.126Z,31.85
2023-05-21T13:42:02.325Z,31.69
2023-05-21T13:45:08.841Z,31.51
2023-05-21T13:48:12.055Z,31.49
2023-05-21T13:51:22.468Z,31.60
2023-05-21T13:54:33.437Z,31.34
2023-05-21T13:57:35.820Z,31.54
2023-05-21T14:00:38.594Z,31.18
2023-05-21T14:03:41.327Z,31.32
2023-05-21T14:06:43.727Z,31.17
2023-05-21T14:09:47.797Z,30.91
2023-05-21T14:12:50.172Z,30.95
2023-05-21T14:15:52.567Z,30.94
2023-05-21T14:18:55.217Z,30.71
2023-05-21T14:21:57.793Z,30.35
2023-05-21T14:25:00.145Z,30.56
2023-05-21T14:28:02.538Z,29.96
2023-05-21T14:31:05.109Z,29.78
2023-05-21T14:34:08.824Z,29.94
2023-05-21T14:37:11.218Z,29.75
2023-05-21T14:40:14.057Z,29.42
2023-05-21T14:43:16.447Z,29.77
2023-05-21T14:46:18.951Z,29.89
2023-05-21T14:49:21.402Z,29.76
2023-05-21T14:52:23.752Z,29.73
2023-05-21T14:55:26.873Z,29.44
2023-05-21T14:58:29.271Z,29.58
2023-05-21T15:01:31.886Z,29.65
2023-05-21T15:04:34.331Z,29.84
2023-05-21T15:07:36.857Z,29.66
2023-05-21T15:10:39.262Z,29.67
2023-05-21T15:13:41.665Z,29.46
2023-05-21T15:16:44.308Z,29.51
2023-05-21T15:19:46.840Z,29.38
2023-05-21T15:22:49.249Z,29.58
2023-05-21T15:25:51.760Z,29.61
2023-05-21T15:28:54.131Z,29.33
2023-05-21T15:31:56.653Z,29.21
2023-05-21T15:34:59.192Z,29.19
2023-05-21T15:38:01.606Z,29.04
2023-05-21T15:41:03.937Z,28.99
2023-05-21T15:44:06.756Z,28.90
2023-05-21T15:47:09.196Z,28.56
2023-05-21T15:50:12.254Z,28.15
2023-05-21T15:53:14.619Z,26.88
2023-05-21T15:56:16.978Z,26.48
2023-05-21T15:59:19.325Z,25.59
2023-05-21T16:02:21.766Z,25.23
2023-05-21T16:05:24.183Z,25.24
2023-05-21T16:08:26.548Z,24.90
2023-05-21T16:11:28.980Z,24.90
2023-05-21T16:14:31.405Z,24.28
2023-05-21T16:17:33.823Z,24.01
2023-05-21T16:20:36.336Z,24.07
2023-05-21T16:23:38.943Z,23.81
2023-05-21T16:26:41.328Z,23.65
2023-05-21T16:29:43.743Z,23.83
2023-05-21T16:32:46.196Z,23.81
2023-05-21T16:35:48.636Z,24.00
2023-05-21T16:38:51.886Z,24.01
2023-05-21T16:41:55.931Z,24.15
2023-05-21T16:44:58.286Z,24.09
2023-05-21T16:48:00.761Z,24.03
2023-05-21T16:51:03.123Z,24.12
2023-05-21T16:54:06.419Z,24.15
2023-05-21T16:57:08.946Z,24.01
2023-05-21T17:00:11.837Z,24.08
2023-05-21T17:03:14.321Z,24.16
2023-05-21T17:06:16.765Z,24.18
2023-05-21T17:09:19.208Z,24.29
2023-05-21T17:12:21.659Z,24.24
2023-05-21T17:15:24.126Z,24.26
2023-05-21T17:18:26.487Z,24.30
2023-05-21T17:21:28.885Z,24.34
2023-05-21T17:24:31.377Z,24.40
2023-05-21T17:27:33.710Z,24.50
2023-05-21T17:30:36.264Z,24.50
2023-05-21T17:33:39.233Z,24.38
2023-05-21T17:36:41.606Z,24.42
2023-05-21T17:39:44.086Z,24.33
2023-05-21T17:42:46.493Z,24.24
2023-05-21T17:45:48.835Z,24.07
2023-05-21T17:48:51.448Z,23.75
2023-05-21T17:51:53.925Z,23.74
2023-05-21T17:54:56.375Z,23.77
2023-05-21T17:57:59.084Z,23.69
2023-05-21T18:01:01.572Z,23.65
2023-05-21T18:04:04.431Z,23.50
2023-05-21T18:07:07.372Z,23.48
2023-05-21T18:10:09.934Z,23.46
2023-05-21T18:13:12.346Z,23.35
2023-05-21T18:16:14.777Z,23.27
2023-05-21T18:19:17.258Z,23.11
2023-05-21T18:22:19.687Z,22.91
2023-05-21T18:25:22.141Z,22.91
2023-05-21T18:28:24.595Z,22.82
2023-05-21T18:31:27.113Z,22.80
2023-05-21T18:34:29.618Z,22.76
2023-05-21T18:37:32.050Z,22.79
2023-05-21T18:40:34.564Z,22.70
2023-05-21T18:43:37.234Z,22.58
2023-05-21T18:46:39.651Z,22.44
2023-05-21T18:49:42.143Z,22.59
2023-05-21T18:52:44.620Z,22.56
2023-05-21T18:55:47.126Z,22.48
2023-05-21T18:58:49.530Z,22.38
2023-05-21T19:01:52.015Z,22.38
2023-05-21T19:04:54.491Z,22.33
2023-05-21T19:07:59.268Z,22.18
2023-05-21T19:11:01.957Z,22.11
2023-05-21T19:14:04.587Z,22.20
2023-05-21T19:17:08.432Z,22.20
2023-05-21T19:20:10.961Z,22.18
2023-05-21T19:23:13.377Z,22.11
2023-05-21T19:26:15.813Z,22.05
2023-05-21T19:29:18.243Z,22.09
2023-05-21T19:32:21.324Z,22.00
2023-05-21T19:35:23.712Z,21.93
2023-05-21T19:38:26.115Z,21.91
2023-05-21T19:41:28.545Z,21.85
2023-05-21T19:44:31.186Z,21.76
2023-05-21T19:47:33.596Z,21.69
2023-05-21T19:50:36.325Z,21.65
2023-05-21T19:53:38.884Z,21.57
2023-05-21T19:56:41.586Z,21.61
2023-05-21T19:59:43.947Z,21.52
2023-05-21T20:02:46.821Z,21.46
2023-05-21T20:05:49.243Z,21.47
2023-05-21T20:08:51.896Z,21.39
2023-05-21T20:11:54.274Z,21.24
2023-05-21T20:14:56.977Z,21.22
2023-05-21T20:17:59.460Z,21.25
2023-05-21T20:21:06.175Z,21.22
2023-05-21T20:24:08.814Z,21.18
2023-05-21T20:27:11.230Z,21.17
2023-05-21T20:30:13.700Z,21.10
2023-05-21T20:33:16.089Z,21.10
2023-05-21T20:36:18.643Z,20.97
2023-05-21T20:39:22.998Z,20.68
2023-05-21T20:42:30.788Z,20.81
2023-05-21T20:45:33.613Z,20.79
2023-05-21T20:48:36.082Z,20.77
2023-05-21T20:51:38.499Z,20.76
2023-05-21T20:54:42.645Z,20.73
2023-05-21T20:57:45.033Z,20.61
2023-05-21T21:00:47.599Z,20.46
2023-05-21T21:03:50.228Z,20.50
2023-05-21T21:06:53.405Z,20.62
2023-05-21T21:09:55.791Z,20.41
2023-05-21T21:12:58.172Z,20.43
2023-05-21T21:16:00.694Z,20.39
2023-05-21T21:19:03.235Z,20.22
2023-05-21T21:22:05.673Z,20.28
2023-05-21T21:25:08.476Z,20.28
2023-05-21T21:28:11.054Z,20.34
2023-05-21T21:31:13.440Z,20.28
2023-05-21T21:34:16.116Z,20.21
2023-05-21T21:37:18.528Z,20.26
2023-05-21T21:40:21.258Z,20.26
2023-05-21T21:43:23.629Z,20.25
2023-05-21T21:46:26.546Z,20.27
2023-05-21T21:49:28.894Z,20.20
2023-05-21T21:52:32.601Z,20.24
2023-05-21T21:55:35.082Z,20.19
2023-05-21T21:58:37.714Z,20.25
2023-05-21T22:01:40.128Z,20.22
2023-05-21T22:04:43.723Z,20.10
2023-05-21T22:07:46.820Z,20.18
2023-05-21T22:10:49.290Z,20.16
2023-05-21T22:13:53.892Z,20.24
2023-05-21T22:16:56.261Z,20.28
2023-05-21T22:19:58.686Z,20.25
2023-05-21T22:23:01.169Z,20.14
2023-05-21T22:26:03.708Z,20.15
2023-05-21T22:29:06.204Z,20.18
2023-05-21T22:32:08.622Z,20.00
2023-05-21T22:35:12.664Z,20.03
2023-05-21T22:38:15.026Z,19.92
2023-05-21T22:41:17.421Z,19.85
2023-05-21T22:44:19.779Z,19.99
2023-05-21T22:47:23.981Z,19.95
2023-05-21T22:50:29.154Z,19.82
2023-05-21T22:53:32.392Z,19.86
2023-05-21T22:56:34.746Z,19.86
2023-05-21T22:59:37.112Z,19.79
2023-05-21T23:02:39.553Z,19.82
2023-05-21T23:05:42.009Z,19.87
2023-05-21T23:08:44.789Z,19.84
2023-05-21T23:11:47.162Z,19.80
2023-05-21T23:14:49.517Z,19.30
2023-05-21T23:17:51.952Z,19.33
2023-05-21T23:20:54.330Z,19.44
2023-05-21T23:23:56.757Z,19.54
2023-05-21T23:27:02.917Z,19.56
2023-05-21T23:30:06.011Z,19.57
2023-05-21T23:33:08.875Z,19.58
2023-05-21T23:36:11.347Z,19.55
2023-05-21T23:39:13.738Z,19.66
2023-05-21T23:42:16.679Z,19.67
2023-05-21T23:45:19.087Z,19.67
2023-05-21T23:48:21.545Z,19.73
2023-05-21T23:51:24.018Z,19.66
2023-05-21T23:54:26.360Z,19.53
2023-05-21T23:57:28.758Z,19.40
